createdAt,value
2023-05-05T00:01:08.261Z,80.13
2023-05-05T00:03:38.310Z,79.64
2023-05-05T00:06:08.118Z,79.52
2023-05-05T00:08:34.845Z,80.19
2023-05-05T00:11:01.400Z,80.33
2023-05-05T00:13:27.874Z,80.00
2023-05-05T00:15:54.488Z,82.23
2023-05-05T00:18:21.341Z,82.39
2023-05-05T00:20:48.672Z,80.60
2023-05-05T00:23:16.488Z,79.36
2023-05-05T00:25:43.248Z,83.25
2023-05-05T00:28:09.953Z,84.77
2023-05-05T00:30:37.335Z,83.61
2023-05-05T00:33:04.242Z,84.53
2023-05-05T00:35:30.866Z,85.27
2023-05-05T00:37:57.404Z,84.17
2023-05-05T00:40:25.129Z,83.52
2023-05-05T00:42:52.293Z,86.61
2023-05-05T00:45:20.064Z,85.54
2023-05-05T00:47:49.610Z,84.97
2023-05-05T00:50:35.137Z,84.37
2023-05-05T00:53:06.389Z,83.75
2023-05-05T00:55:34.336Z,83.56
2023-05-05T00:58:02.962Z,84.24
2023-05-05T01:00:30.176Z,82.51
2023-05-05T01:02:57.072Z,81.40
2023-05-05T01:05:27.064Z,83.62
2023-05-05T01:08:09.429Z,83.07
2023-05-05T01:10:45.283Z,82.75
2023-05-05T01:13:37.381Z,83.32
2023-05-05T01:16:09.693Z,81.52
2023-05-05T01:18:49.866Z,81.33
2023-05-05T01:21:41.413Z,80.68
2023-05-05T01:24:43.759Z,79.77
2023-05-05T01:27:38.374Z,81.03
2023-05-05T01:30:10.905Z,83.08
2023-05-05T01:32:46.867Z,81.26
2023-05-05T01:35:20.702Z,81.68
2023-05-05T01:38:14.892Z,82.03
2023-05-05T01:40:47.042Z,80.73
2023-05-05T01:43:17.856Z,81.65
2023-05-05T01:45:46.497Z,80.47
2023-05-05T01:48:17.112Z,81.09
2023-05-05T01:50:46.663Z,82.22
2023-05-05T01:53:14.818Z,81.64
2023-05-05T01:55:42.365Z,82.26
2023-05-05T01:58:11.881Z,81.00
2023-05-05T02:00:38.708Z,80.74
2023-05-05T02:03:07.917Z,81.97
2023-05-05T02:05:38.554Z,84.33
2023-05-05T02:08:06.529Z,83.66
2023-05-05T02:10:33.538Z,84.44
2023-05-05T02:13:02.810Z,83.60
2023-05-05T02:15:30.722Z,82.42
2023-05-05T02:17:59.469Z,82.34
2023-05-05T02:20:28.679Z,81.70
2023-05-05T02:22:55.326Z,80.46
2023-05-05T02:25:22.688Z,80.67
2023-05-05T02:27:53.170Z,80.27
2023-05-05T02:30:20.443Z,80.61
2023-05-05T02:32:53.362Z,81.11
2023-05-05T02:35:22.989Z,81.73
2023-05-05T02:38:02.649Z,82.65
2023-05-05T02:40:33.358Z,82.40
2023-05-05T02:43:03.661Z,83.88
2023-05-05T02:45:30.661Z,82.53
2023-05-05T02:47:57.190Z,83.46
2023-05-05T02:50:23.753Z,82.29
2023-05-05T02:52:50.471Z,82.93
2023-05-05T02:55:17.111Z,85.03
2023-05-05T02:58:04.671Z,84.82
2023-05-05T03:00:46.534Z,83.78
2023-05-05T03:03:26.266Z,84.41
2023-05-05T03:06:17.192Z,84.31
2023-05-05T03:08:49.053Z,83.58
2023-05-05T03:11:27.890Z,83.73
2023-05-05T03:14:05.724Z,81.79
2023-05-05T03:16:35.047Z,82.32
2023-05-05T03:19:02.995Z,82.34
2023-05-05T03:21:30.759Z,82.27
2023-05-05T03:23:58.006Z,81.66
2023-05-05T03:26:24.735Z,83.40
2023-05-05T03:28:51.316Z,82.61
2023-05-05T03:31:18.574Z,83.20
2023-05-05T03:33:45.149Z,83.07
2023-05-05T03:36:11.664Z,82.91
2023-05-05T03:38:38.107Z,84.05
2023-05-05T03:41:04.589Z,84.44
2023-05-05T03:43:31.077Z,84.64
2023-05-05T03:45:57.610Z,84.84
2023-05-05T03:48:24.206Z,85.45
2023-05-05T03:50:50.715Z,85.77
2023-05-05T03:53:17.282Z,85.40
2023-05-05T03:55:43.788Z,84.69
2023-05-05T03:58:11.085Z,85.46
2023-05-05T04:00:37.655Z,84.97
2023-05-05T04:03:04.369Z,84.95
2023-05-05T04:05:31.046Z,85.31
2023-05-05T04:07:58.363Z,85.83
2023-05-05T04:10:25.057Z,85.05
2023-05-05T04:12:51.571Z,85.77
2023-05-05T04:15:18.172Z,87.15
2023-05-05T04:17:44.738Z,87.54
2023-05-05T04:20:11.620Z,87.74
2023-05-05T04:22:38.208Z,88.02
2023-05-05T04:25:05.013Z,87.19
2023-05-05T04:27:31.583Z,89.26
2023-05-05T04:29:58.283Z,89.18
2023-05-05T04:32:24.774Z,88.61
2023-05-05T04:34:51.349Z,88.36
2023-05-05T04:37:17.888Z,87.78
2023-05-05T04:39:44.398Z,87.27
2023-05-05T04:42:11.119Z,85.93
2023-05-05T04:44:37.782Z,86.80
2023-05-05T04:47:04.331Z,88.95
2023-05-05T04:49:31.312Z,89.06
2023-05-05T04:51:58.166Z,89.00
2023-05-05T04:54:24.636Z,89.17
2023-05-05T04:56:51.252Z,90.61
2023-05-05T04:59:18.023Z,91.36
2023-05-05T05:01:44.779Z,92.69
2023-05-05T05:04:11.358Z,91.91
2023-05-05T05:06:37.870Z,91.41
2023-05-05T05:09:04.320Z,89.30
2023-05-05T05:11:30.751Z,88.16
2023-05-05T05:13:57.224Z,87.96
2023-05-05T05:16:25.177Z,87.40
2023-05-05T05:18:51.672Z,88.53
2023-05-05T05:21:18.128Z,87.67
2023-05-05T05:23:44.554Z,86.23
2023-05-05T05:26:11.084Z,87.66
2023-05-05T05:28:37.557Z,89.43
2023-05-05T05:31:04.802Z,86.51
2023-05-05T05:33:31.268Z,85.47
2023-05-05T05:35:57.904Z,86.22
2023-05-05T05:38:24.350Z,86.18
2023-05-05T05:40:50.905Z,86.91
2023-05-05T05:43:17.368Z,86.19
2023-05-05T05:45:43.984Z,85.93
2023-05-05T05:48:10.640Z,85.63
2023-05-05T05:50:37.350Z,84.19
2023-05-05T05:53:03.880Z,83.85
2023-05-05T05:55:30.445Z,82.98
2023-05-05T05:57:56.955Z,82.33
2023-05-05T06:00:23.690Z,82.65
2023-05-05T06:02:51.637Z,81.30
2023-05-05T06:05:18.224Z,81.00
2023-05-05T06:07:44.786Z,81.08
2023-05-05T06:10:25.165Z,80.30
2023-05-05T06:12:53.733Z,80.23
2023-05-05T06:15:20.293Z,80.90
2023-05-05T06:17:46.901Z,81.56
2023-05-05T06:20:13.975Z,82.57
2023-05-05T06:22:40.665Z,83.44
2023-05-05T06:25:07.432Z,83.22
2023-05-05T06:27:33.888Z,85.04
2023-05-05T06:30:00.370Z,86.45
2023-05-05T06:32:26.828Z,86.10
2023-05-05T06:34:53.439Z,84.69
2023-05-05T06:37:19.944Z,83.30
2023-05-05T06:39:46.534Z,82.66
2023-05-05T06:42:13.010Z,81.27
2023-05-05T06:44:39.854Z,82.63
2023-05-05T06:47:06.576Z,83.42
2023-05-05T06:49:33.383Z,82.96
2023-05-05T06:51:59.933Z,82.86
2023-05-05T06:54:26.440Z,81.95
2023-05-05T06:56:52.936Z,81.71
2023-05-05T06:59:19.528Z,80.85
2023-05-05T07:01:46.271Z,79.24
2023-05-05T07:04:12.828Z,78.56
2023-05-05T07:06:39.646Z,76.25
2023-05-05T07:09:06.719Z,73.48
2023-05-05T07:11:33.373Z,71.87
2023-05-05T07:13:59.907Z,69.43
2023-05-05T07:16:27.239Z,67.42
2023-05-05T07:18:53.783Z,66.12
2023-05-05T07:21:20.270Z,61.83
2023-05-05T07:23:47.808Z,61.34
2023-05-05T07:26:15.480Z,63.87
2023-05-05T07:28:43.128Z,60.52
2023-05-05T07:31:09.767Z,58.87
2023-05-05T07:33:36.486Z,58.89
2023-05-05T07:36:03.184Z,59.99
2023-05-05T07:38:29.754Z,60.48
2023-05-05T07:40:56.211Z,59.07
2023-05-05T07:43:22.723Z,55.86
2023-05-05T07:45:49.246Z,58.13
2023-05-05T07:48:15.726Z,55.67
2023-05-05T07:50:42.200Z,53.09
2023-05-05T07:53:14.347Z,52.63
2023-05-05T07:55:41.409Z,50.43
2023-05-05T07:58:08.516Z,51.03
2023-05-05T08:00:35.576Z,49.40
2023-05-05T08:03:02.369Z,47.92
2023-05-05T08:05:28.961Z,49.43
2023-05-05T08:07:55.427Z,48.90
2023-05-05T08:10:22.548Z,48.54
2023-05-05T08:12:49.196Z,47.03
2023-05-05T08:15:15.845Z,47.45
2023-05-05T08:17:47.471Z,47.35
2023-05-05T08:20:14.390Z,46.17
2023-05-05T08:22:42.453Z,44.81
2023-05-05T08:25:13.198Z,45.07
2023-05-05T08:27:41.045Z,46.66
2023-05-05T08:30:08.795Z,46.09
2023-05-05T08:32:35.486Z,46.71
2023-05-05T08:35:06.457Z,48.38
2023-05-05T08:37:33.332Z,43.95
2023-05-05T08:40:00.241Z,41.80
2023-05-05T08:42:37.183Z,45.09
2023-05-05T08:45:05.737Z,46.88
2023-05-05T08:47:33.051Z,45.25
2023-05-05T08:50:00.214Z,47.20
2023-05-05T08:52:29.419Z,45.79
2023-05-05T08:55:27.280Z,42.85
2023-05-05T08:57:58.357Z,42.09
2023-05-05T09:00:27.033Z,42.06
2023-05-05T09:02:56.814Z,39.80
2023-05-05T09:05:24.177Z,38.94
2023-05-05T09:07:51.248Z,39.58
2023-05-05T09:10:18.982Z,41.42
2023-05-05T09:12:45.849Z,40.89
2023-05-05T09:15:14.391Z,38.22
2023-05-05T09:17:41.895Z,39.89
2023-05-05T09:20:11.178Z,39.67
2023-05-05T09:22:38.878Z,36.88
2023-05-05T09:25:07.235Z,37.67
2023-05-05T09:27:41.528Z,37.97
2023-05-05T09:30:10.097Z,41.99
2023-05-05T09:32:54.385Z,42.37
2023-05-05T09:35:22.159Z,40.98
2023-05-05T09:37:48.815Z,41.39
2023-05-05T09:40:17.920Z,45.08
2023-05-05T09:42:45.019Z,42.70
2023-05-05T09:45:17.275Z,43.65
2023-05-05T09:47:45.813Z,44.07
2023-05-05T09:50:18.625Z,44.75
2023-05-05T09:52:57.607Z,42.55
2023-05-05T09:55:25.483Z,41.89
2023-05-05T09:57:52.262Z,42.55
2023-05-05T10:00:19.573Z,42.34
2023-05-05T10:02:46.497Z,44.71
2023-05-05T10:05:15.356Z,44.31
2023-05-05T10:07:44.188Z,39.70
2023-05-05T10:10:16.194Z,37.02
2023-05-05T10:12:43.237Z,37.65
2023-05-05T10:15:11.451Z,37.00
2023-05-05T10:18:02.331Z,38.08
2023-05-05T10:20:33.830Z,40.64
2023-05-05T10:23:05.506Z,40.52
2023-05-05T10:25:39.078Z,35.76
2023-05-05T10:28:06.969Z,36.21
2023-05-05T10:30:39.007Z,34.54
2023-05-05T10:33:30.154Z,33.76
2023-05-05T10:36:01.601Z,33.29
2023-05-05T10:38:30.977Z,35.08
2023-05-05T10:40:59.629Z,34.35
2023-05-05T10:43:27.638Z,36.58
2023-05-05T10:45:54.849Z,33.89
2023-05-05T10:48:31.224Z,36.93
2023-05-05T10:51:08.945Z,38.40
2023-05-05T10:53:51.522Z,36.50
2023-05-05T10:56:29.694Z,37.20
2023-05-05T10:59:00.069Z,34.17
2023-05-05T11:01:35.242Z,33.40
2023-05-05T11:04:22.644Z,32.03
2023-05-05T11:07:14.788Z,33.02
2023-05-05T11:10:02.927Z,35.02
2023-05-05T11:12:30.772Z,32.51
2023-05-05T11:15:28.437Z,33.21
2023-05-05T11:17:56.467Z,31.42
2023-05-05T11:20:41.033Z,31.09
2023-05-05T11:23:07.706Z,31.75
2023-05-05T11:25:37.610Z,30.74
2023-05-05T11:28:08.501Z,31.09
2023-05-05T11:30:36.690Z,30.29
2023-05-05T11:33:36.871Z,30.90
2023-05-05T11:36:14.411Z,29.83
2023-05-05T11:39:18.216Z,31.51
2023-05-05T11:41:53.769Z,32.60
2023-05-05T11:44:29.435Z,31.19
2023-05-05T11:47:02.769Z,30.51
2023-05-05T11:49:37.143Z,29.10
2023-05-05T11:52:04.910Z,28.11
2023-05-05T11:54:32.351Z,28.74
2023-05-05T11:57:02.194Z,30.32
2023-05-05T11:59:28.739Z,27.78
2023-05-05T12:01:55.215Z,28.74
2023-05-05T12:04:21.825Z,29.14
2023-05-05T12:06:49.349Z,28.19
2023-05-05T12:09:17.799Z,29.28
2023-05-05T12:11:57.196Z,27.22
2023-05-05T12:14:25.139Z,27.34
2023-05-05T12:16:58.404Z,27.73
2023-05-05T12:19:30.068Z,28.88
2023-05-05T12:21:56.985Z,28.44
2023-05-05T12:24:23.716Z,27.77
2023-05-05T12:26:50.384Z,27.50
2023-05-05T12:29:29.415Z,30.04
2023-05-05T12:31:57.945Z,28.72
2023-05-05T12:34:24.559Z,29.51
2023-05-05T12:36:51.324Z,29.20
2023-05-05T12:39:17.896Z,30.91
2023-05-05T12:41:44.450Z,29.14
2023-05-05T12:44:11.123Z,29.72
2023-05-05T12:46:48.155Z,30.67
2023-05-05T12:49:15.236Z,28.65
2023-05-05T12:52:02.077Z,30.03
2023-05-05T12:54:31.095Z,31.55
2023-05-05T12:56:58.641Z,32.88
2023-05-05T12:59:25.095Z,34.21
2023-05-05T13:01:53.999Z,35.73
2023-05-05T13:04:22.944Z,35.36
2023-05-05T13:07:07.962Z,36.07
2023-05-05T13:09:34.719Z,38.03
2023-05-05T13:12:04.429Z,39.00
2023-05-05T13:14:34.501Z,39.50
2023-05-05T13:17:01.059Z,40.53
2023-05-05T13:19:27.803Z,42.80
2023-05-05T13:21:55.647Z,43.34
2023-05-05T13:24:34.347Z,44.08
2023-05-05T13:27:09.212Z,44.56
2023-05-05T13:29:35.902Z,45.11
2023-05-05T13:32:02.440Z,46.90
2023-05-05T13:34:29.009Z,48.86
2023-05-05T13:36:55.732Z,54.04
2023-05-05T13:39:22.257Z,55.65
2023-05-05T13:41:48.741Z,58.29
2023-05-05T13:44:15.959Z,62.31
2023-05-05T13:46:42.982Z,64.76
2023-05-05T13:49:09.671Z,74.16
2023-05-05T13:51:36.965Z,79.97
2023-05-05T13:54:03.996Z,86.20
2023-05-05T13:56:30.633Z,86.83
2023-05-05T13:58:57.318Z,89.32
2023-05-05T14:01:24.016Z,87.34
2023-05-05T14:03:50.747Z,89.31
2023-05-05T14:06:17.305Z,91.86
2023-05-05T14:08:43.814Z,91.84
2023-05-05T14:11:10.708Z,92.45
2023-05-05T14:13:37.235Z,91.57
2023-05-05T14:16:03.880Z,88.22
2023-05-05T14:18:30.458Z,86.46
2023-05-05T14:20:57.056Z,86.54
2023-05-05T14:23:23.722Z,83.65
2023-05-05T14:25:50.201Z,86.74
2023-05-05T14:28:17.108Z,88.44
2023-05-05T14:30:43.640Z,91.70
2023-05-05T14:33:10.286Z,89.13
2023-05-05T14:35:36.816Z,91.42
2023-05-05T14:38:03.323Z,90.67
2023-05-05T14:40:31.169Z,91.56
2023-05-05T14:42:57.883Z,89.53
2023-05-05T14:45:24.448Z,88.86
2023-05-05T14:47:51.013Z,91.02
2023-05-05T14:50:17.521Z,92.44
2023-05-05T14:52:44.497Z,93.38
2023-05-05T14:55:11.537Z,94.15
2023-05-05T14:57:38.871Z,95.08
2023-05-05T15:00:07.095Z,92.32
2023-05-05T15:02:33.832Z,93.98
2023-05-05T15:05:00.455Z,99.24
2023-05-05T15:07:28.554Z,99.85
2023-05-05T15:09:58.405Z,100.00
2023-05-05T15:12:26.003Z,97.29
2023-05-05T15:14:52.757Z,98.52
2023-05-05T15:17:19.362Z,99.53
2023-05-05T15:19:46.048Z,100.00
2023-05-05T15:22:12.500Z,100.00
2023-05-05T15:24:39.073Z,100.00
2023-05-05T15:27:05.653Z,100.00
2023-05-05T15:29:32.294Z,100.00
2023-05-05T15:31:58.843Z,100.00
2023-05-05T15:34:26.201Z,100.00
2023-05-05T15:36:52.796Z,100.00
2023-05-05T15:39:19.939Z,100.00
2023-05-05T15:41:46.493Z,100.00
2023-05-05T15:44:13.144Z,100.00
2023-05-05T15:46:39.876Z,100.00
2023-05-05T15:49:06.526Z,100.00
2023-05-05T15:51:33.223Z,100.00
2023-05-05T15:54:00.359Z,100.00
2023-05-05T15:56:29.549Z,100.00
2023-05-05T15:58:56.754Z,100.00
2023-05-05T16:01:23.387Z,100.00
2023-05-05T16:03:50.028Z,100.00
2023-05-05T16:06:16.741Z,100.00
2023-05-05T16:08:43.335Z,100.00
2023-05-05T16:11:09.923Z,100.00
2023-05-05T16:13:36.390Z,100.00
2023-05-05T16:16:03.290Z,100.00
2023-05-05T16:18:29.816Z,100.00
2023-05-05T16:20:56.451Z,100.00
2023-05-05T16:23:22.981Z,100.00
2023-05-05T16:25:49.602Z,100.00
2023-05-05T16:28:16.622Z,100.00
2023-05-05T16:30:43.292Z,100.00
2023-05-05T16:33:10.130Z,100.00
2023-05-05T16:35:36.736Z,100.00
2023-05-05T16:38:03.540Z,100.00
2023-05-05T16:40:30.082Z,100.00
2023-05-05T16:42:56.514Z,100.00
2023-05-05T16:45:24.327Z,100.00
2023-05-05T16:47:51.175Z,100.00
2023-05-05T16:50:17.869Z,100.00
2023-05-05T16:52:44.345Z,100.00
2023-05-05T16:55:10.968Z,100.00
2023-05-05T16:57:37.886Z,100.00
2023-05-05T17:00:06.445Z,100.00
2023-05-05T17:02:33.380Z,100.00
2023-05-05T17:04:59.915Z,100.00
2023-05-05T17:07:26.533Z,100.00
2023-05-05T17:09:53.194Z,100.00
2023-05-05T17:12:19.732Z,100.00
2023-05-05T17:14:46.252Z,100.00
2023-05-05T17:17:12.997Z,100.00
2023-05-05T17:19:39.546Z,100.00
2023-05-05T17:22:06.130Z,100.00
2023-05-05T17:24:32.632Z,100.00
2023-05-05T17:26:59.574Z,100.00
2023-05-05T17:29:26.540Z,100.00
2023-05-05T17:31:54.221Z,100.00
2023-05-05T17:34:20.871Z,100.00
2023-05-05T17:36:47.332Z,100.00
2023-05-05T17:39:13.900Z,100.00
2023-05-05T17:41:42.031Z,98.60
2023-05-05T17:44:08.553Z,100.00
2023-05-05T17:46:35.237Z,100.00
2023-05-05T17:49:02.762Z,100.00
2023-05-05T17:51:29.274Z,100.00
2023-05-05T17:53:56.188Z,100.00
2023-05-05T17:56:22.914Z,100.00
2023-05-05T17:58:49.657Z,100.00
2023-05-05T18:01:22.565Z,100.00
2023-05-05T18:03:49.262Z,100.00
2023-05-05T18:06:16.230Z,100.00
2023-05-05T18:08:43.152Z,100.00
2023-05-05T18:11:09.613Z,100.00
2023-05-05T18:13:36.661Z,100.00
2023-05-05T18:16:03.599Z,100.00
2023-05-05T18:18:30.144Z,100.00
2023-05-05T18:20:56.753Z,100.00
2023-05-05T18:23:23.294Z,100.00
2023-05-05T18:25:49.796Z,100.00
2023-05-05T18:28:16.446Z,100.00
2023-05-05T18:30:42.918Z,100.00
2023-05-05T18:33:09.409Z,100.00
2023-05-05T18:35:35.950Z,100.00
2023-05-05T18:38:03.325Z,100.00
2023-05-05T18:40:29.886Z,100.00
2023-05-05T18:42:56.911Z,100.00
2023-05-05T18:45:23.574Z,100.00
2023-05-05T18:47:50.175Z,100.00
2023-05-05T18:50:16.784Z,100.00
2023-05-05T18:52:43.215Z,100.00
2023-05-05T18:55:10.121Z,100.00
2023-05-05T18:57:36.886Z,100.00
2023-05-05T19:00:03.591Z,100.00
2023-05-05T19:02:30.197Z,100.00
2023-05-05T19:04:56.750Z,100.00
2023-05-05T19:07:34.449Z,100.00
2023-05-05T19:10:01.793Z,100.00
2023-05-05T19:12:28.347Z,100.00
2023-05-05T19:14:54.886Z,100.00
2023-05-05T19:17:21.367Z,100.00
2023-05-05T19:19:47.869Z,100.00
2023-05-05T19:22:15.269Z,100.00
2023-05-05T19:24:41.752Z,100.00
2023-05-05T19:27:15.428Z,100.00
2023-05-05T19:29:43.244Z,100.00
2023-05-05T19:32:09.821Z,100.00
2023-05-05T19:34:36.597Z,100.00
2023-05-05T19:37:03.117Z,100.00
2023-05-05T19:39:29.676Z,100.00
2023-05-05T19:41:56.118Z,100.00
2023-05-05T19:44:22.847Z,100.00
2023-05-05T19:46:49.386Z,100.00
2023-05-05T19:49:16.447Z,100.00
2023-05-05T19:51:43.812Z,100.00
2023-05-05T19:54:10.597Z,100.00
2023-05-05T19:56:37.176Z,100.00
2023-05-05T19:59:06.284Z,100.00
2023-05-05T20:01:33.841Z,100.00
2023-05-05T20:04:00.956Z,100.00
2023-05-05T20:06:27.588Z,100.00
2023-05-05T20:08:55.384Z,100.00
2023-05-05T20:11:22.389Z,100.00
2023-05-05T20:13:49.950Z,100.00
2023-05-05T20:16:16.716Z,100.00
2023-05-05T20:18:43.703Z,100.00
2023-05-05T20:21:10.611Z,100.00
2023-05-05T20:23:37.317Z,100.00
2023-05-05T20:26:04.537Z,100.00
2023-05-05T20:28:31.714Z,100.00
2023-05-05T20:30:58.296Z,100.00
2023-05-05T20:33:24.866Z,100.00
2023-05-05T20:35:51.417Z,100.00
2023-05-05T20:38:18.022Z,100.00
2023-05-05T20:40:44.465Z,100.00
2023-05-05T20:43:10.976Z,100.00
2023-05-05T20:45:39.897Z,100.00
2023-05-05T20:48:09.697Z,100.00
2023-05-05T20:50:40.005Z,100.00
2023-05-05T20:53:08.252Z,100.00
2023-05-05T20:55:35.084Z,100.00
2023-05-05T20:58:01.609Z,100.00
2023-05-05T21:00:28.122Z,100.00
2023-05-05T21:02:56.792Z,100.00
2023-05-05T21:05:23.733Z,100.00
2023-05-05T21:07:50.428Z,100.00
2023-05-05T21:10:16.934Z,100.00
2023-05-05T21:12:43.489Z,100.00
2023-05-05T21:15:11.183Z,100.00
2023-05-05T21:17:38.196Z,100.00
2023-05-05T21:20:05.086Z,100.00
2023-05-05T21:22:31.544Z,100.00
2023-05-05T21:25:10.279Z,100.00
2023-05-05T21:27:36.739Z,100.00
2023-05-05T21:30:03.377Z,100.00
2023-05-05T21:32:29.866Z,100.00
2023-05-05T21:34:56.508Z,100.00
2023-05-05T21:37:22.975Z,100.00
2023-05-05T21:39:49.702Z,100.00
2023-05-05T21:42:16.245Z,100.00
2023-05-05T21:44:42.776Z,100.00
2023-05-05T21:47:09.719Z,100.00
2023-05-05T21:49:36.230Z,100.00
2023-05-05T21:52:02.678Z,100.00
2023-05-05T21:54:29.902Z,100.00
2023-05-05T21:56:56.516Z,100.00
2023-05-05T21:59:23.020Z,100.00
2023-05-05T22:01:49.895Z,100.00
2023-05-05T22:04:16.418Z,100.00
2023-05-05T22:06:42.918Z,100.00
2023-05-05T22:09:09.405Z,100.00
2023-05-05T22:11:36.004Z,100.00
2023-05-05T22:14:02.462Z,100.00
2023-05-05T22:16:29.174Z,100.00
2023-05-05T22:18:55.690Z,100.00
2023-05-05T22:21:22.231Z,100.00
2023-05-05T22:23:48.800Z,100.00
2023-05-05T22:26:15.331Z,100.00
2023-05-05T22:28:42.305Z,100.00
2023-05-05T22:31:08.778Z,100.00
2023-05-05T22:33:36.110Z,100.00
2023-05-05T22:36:02.631Z,100.00
2023-05-05T22:38:29.061Z,100.00
2023-05-05T22:40:55.667Z,100.00
2023-05-05T22:43:22.194Z,100.00
2023-05-05T22:45:48.788Z,100.00
2023-05-05T22:48:15.272Z,100.00
2023-05-05T22:50:41.888Z,100.00
2023-05-05T22:53:08.329Z,100.00
2023-05-05T22:55:34.808Z,100.00
2023-05-05T22:58:01.318Z,100.00
2023-05-05T23:00:28.296Z,100.00
2023-05-05T23:02:55.183Z,100.00
2023-05-05T23:05:22.046Z,100.00
2023-05-05T23:07:48.696Z,100.00
2023-05-05T23:10:15.228Z,100.00
2023-05-05T23:12:41.826Z,100.00
2023-05-05T23:15:09.910Z,100.00
2023-05-05T23:17:36.735Z,100.00
2023-05-05T23:20:04.268Z,100.00
2023-05-05T23:22:30.792Z,100.00
2023-05-05T23:24:57.294Z,100.00
2023-05-05T23:27:23.970Z,100.00
2023-05-05T23:29:50.688Z,100.00
2023-05-05T23:32:17.609Z,100.00
2023-05-05T23:34:44.200Z,100.00
2023-05-05T23:37:10.786Z,100.00
2023-05-05T23:39:37.320Z,100.00
2023-05-05T23:42:03.892Z,100.00
2023-05-05T23:44:30.326Z,100.00
2023-05-05T23:46:56.804Z,100.00
2023-05-05T23:49:24.969Z,100.00
2023-05-05T23:51:51.514Z,100.00
2023-05-05T23:54:18.034Z,100.00
2023-05-05T23:56:45.726Z,100.00
2023-05-05T23:59:12.174Z,100.00
